createdAt,value
2022-12-04T00:01:23.872Z,8.43
2022-12-04T00:03:54.563Z,8.39
2022-12-04T00:06:23.856Z,8.38
2022-12-04T00:09:03.703Z,8.37
2022-12-04T00:11:32.786Z,8.35
2022-12-04T00:14:06.539Z,8.43
2022-12-04T00:16:37.306Z,8.44
2022-12-04T00:19:07.711Z,8.43
2022-12-04T00:21:54.388Z,8.40
2022-12-04T00:24:31.746Z,8.38
2022-12-04T00:30:17.900Z,8.34
2022-12-04T00:32:47.080Z,8.35
2022-12-04T00:44:57.323Z,8.27
2022-12-04T00:56:59.931Z,8.14
2022-12-04T00:59:27.254Z,8.15
2022-12-04T01:02:04.680Z,8.21
2022-12-04T01:04:58.466Z,8.23
2022-12-04T01:10:55.952Z,8.18
2022-12-04T01:18:25.987Z,8.16
2022-12-04T01:19:20.441Z,8.09
2022-12-04T01:21:51.085Z,8.11
2022-12-04T01:24:27.417Z,8.10
2022-12-04T01:26:57.656Z,8.08
2022-12-04T01:29:25.906Z,8.10
2022-12-04T01:32:37.176Z,8.10
2022-12-04T01:34:53.693Z,8.11
2022-12-04T01:40:58.640Z,8.16
2022-12-04T01:43:32.336Z,8.16
2022-12-04T01:46:01.833Z,8.18
2022-12-04T01:48:34.802Z,8.17
2022-12-04T01:51:24.800Z,8.17
2022-12-04T01:54:10.856Z,8.13
2022-12-04T01:56:52.795Z,8.10
2022-12-04T01:59:42.877Z,8.11
2022-12-04T02:02:14.543Z,8.08
2022-12-04T02:04:46.705Z,8.06
2022-12-04T02:07:17.366Z,8.03
2022-12-04T02:09:56.546Z,8.03
2022-12-04T02:12:49.181Z,8.00
2022-12-04T02:15:42.516Z,8.01
2022-12-04T02:18:14.513Z,7.95
2022-12-04T02:20:41.834Z,7.97
2022-12-04T02:23:09.319Z,7.97
2022-12-04T02:25:44.579Z,7.92
2022-12-04T02:28:13.018Z,7.90
2022-12-04T02:30:42.200Z,7.83
2022-12-04T02:33:15.996Z,7.79
2022-12-04T02:35:45.449Z,7.75
2022-12-04T02:38:17.477Z,7.76
2022-12-04T02:40:47.902Z,7.83
2022-12-04T02:43:18.420Z,7.87
2022-12-04T02:45:47.241Z,7.86
2022-12-04T02:48:17.996Z,7.86
2022-12-04T02:51:27.621Z,7.87
2022-12-04T02:54:00.527Z,7.85
2022-12-04T02:56:47.899Z,7.77
2022-12-04T02:59:21.612Z,7.72
2022-12-04T03:02:11.810Z,7.71
2022-12-04T03:04:40.005Z,7.71
2022-12-04T03:07:26.971Z,7.73
2022-12-04T03:09:58.310Z,7.73
2022-12-04T03:12:28.644Z,7.71
2022-12-04T03:14:58.754Z,7.69
2022-12-04T03:20:47.329Z,7.68
2022-12-04T03:23:19.293Z,7.63
2022-12-04T03:25:48.966Z,7.62
2022-12-04T03:28:22.640Z,7.60
2022-12-04T03:30:52.338Z,7.56
2022-12-04T03:33:21.976Z,7.56
2022-12-04T03:35:52.036Z,7.51
2022-12-04T03:38:19.299Z,7.51
2022-12-04T03:40:49.439Z,7.53
2022-12-04T03:43:23.452Z,7.46
2022-12-04T03:45:55.670Z,7.48
2022-12-04T03:48:25.446Z,7.44
2022-12-04T03:50:55.797Z,7.43
2022-12-04T03:53:34.323Z,7.40
2022-12-04T03:56:11.874Z,7.42
2022-12-04T03:58:41.477Z,7.42
2022-12-04T04:01:11.106Z,7.35
2022-12-04T04:03:44.981Z,7.36
2022-12-04T04:06:14.419Z,7.38
2022-12-04T04:08:43.712Z,7.41
2022-12-04T04:11:13.920Z,7.40
2022-12-04T04:13:50.152Z,7.44
2022-12-04T04:16:22.783Z,7.41
2022-12-04T04:18:54.936Z,7.37
2022-12-04T04:21:27.571Z,7.32
2022-12-04T04:24:01.314Z,7.27
2022-12-04T04:26:29.881Z,7.27
2022-12-04T04:28:56.870Z,7.29
2022-12-04T04:31:27.011Z,7.27
2022-12-04T04:34:00.340Z,7.25
2022-12-04T04:39:31.895Z,7.23
2022-12-04T04:42:04.479Z,7.22
2022-12-04T04:44:34.406Z,7.22
2022-12-04T04:47:04.102Z,7.21
2022-12-04T04:49:33.101Z,7.23
2022-12-04T04:52:00.788Z,7.19
2022-12-04T04:54:28.523Z,7.21
2022-12-04T04:56:55.632Z,7.22
2022-12-04T04:59:22.650Z,7.25
2022-12-04T05:01:49.835Z,7.26
2022-12-04T05:04:16.880Z,7.25
2022-12-04T05:06:43.861Z,7.25
2022-12-04T05:09:10.956Z,7.24
2022-12-04T05:12:24.758Z,7.24
2022-12-04T05:14:54.960Z,7.27
2022-12-04T05:17:22.294Z,7.26
2022-12-04T05:19:52.622Z,7.24
2022-12-04T05:22:23.203Z,7.22
2022-12-04T05:25:25.006Z,7.19
2022-12-04T05:27:54.319Z,7.15
2022-12-04T05:30:21.491Z,7.14
2022-12-04T05:32:50.718Z,7.17
2022-12-04T05:35:17.815Z,7.12
2022-12-04T05:37:46.029Z,7.13
2022-12-04T05:40:13.115Z,7.12
2022-12-04T05:42:40.176Z,7.15
2022-12-04T05:45:07.459Z,7.15
2022-12-04T05:47:38.403Z,7.17
2022-12-04T05:50:08.222Z,7.18
2022-12-04T05:52:38.247Z,7.16
2022-12-04T05:55:06.035Z,7.20
2022-12-04T05:57:34.883Z,7.17
2022-12-04T06:00:05.357Z,7.15
2022-12-04T06:02:34.343Z,7.16
2022-12-04T06:05:01.647Z,7.18
2022-12-04T06:07:30.407Z,7.22
2022-12-04T06:09:57.759Z,7.26
2022-12-04T06:15:46.426Z,7.26
2022-12-04T06:18:15.796Z,7.24
2022-12-04T06:20:45.866Z,7.28
2022-12-04T06:23:16.051Z,7.32
2022-12-04T06:25:43.016Z,7.36
2022-12-04T06:28:11.265Z,7.34
2022-12-04T06:30:38.211Z,7.31
2022-12-04T06:33:05.096Z,7.29
2022-12-04T06:35:32.196Z,7.26
2022-12-04T06:37:59.681Z,7.29
2022-12-04T06:43:48.535Z,7.40
2022-12-04T06:46:16.860Z,7.44
2022-12-04T06:48:43.902Z,7.41
2022-12-04T06:51:18.796Z,7.41
2022-12-04T06:53:46.044Z,7.40
2022-12-04T06:56:18.211Z,7.37
2022-12-04T06:58:48.100Z,7.38
2022-12-04T07:01:20.398Z,7.38
2022-12-04T07:03:52.515Z,7.37
2022-12-04T07:06:20.141Z,7.36
2022-12-04T07:08:48.732Z,7.37
2022-12-04T07:11:17.005Z,7.37
2022-12-04T07:13:44.354Z,7.36
2022-12-04T07:16:17.638Z,7.35
2022-12-04T07:18:45.622Z,7.39
2022-12-04T07:21:16.342Z,7.42
2022-12-04T07:23:45.086Z,7.42
2022-12-04T07:26:16.533Z,7.40
2022-12-04T07:28:45.572Z,7.39
2022-12-04T07:31:13.817Z,7.40
2022-12-04T07:33:41.124Z,7.42
2022-12-04T07:36:14.017Z,7.47
2022-12-04T07:38:44.326Z,7.51
2022-12-04T07:41:14.614Z,7.56
2022-12-04T07:43:44.839Z,7.58
2022-12-04T07:46:13.490Z,7.58
2022-12-04T07:48:40.853Z,7.57
2022-12-04T07:51:09.337Z,7.55
2022-12-04T07:53:39.042Z,7.56
2022-12-04T07:56:06.848Z,7.63
2022-12-04T07:58:34.225Z,7.67
2022-12-04T08:01:26.113Z,7.66
2022-12-04T08:03:56.809Z,7.64
2022-12-04T08:06:25.235Z,7.65
2022-12-04T08:08:52.560Z,7.67
2022-12-04T08:11:22.686Z,7.70
2022-12-04T08:13:49.781Z,7.71
2022-12-04T08:22:53.962Z,7.70
2022-12-04T08:25:21.057Z,7.74
2022-12-04T08:27:48.401Z,7.74
2022-12-04T08:30:15.661Z,7.70
2022-12-04T08:32:42.701Z,7.68
2022-12-04T08:35:11.596Z,7.68
2022-12-04T08:37:51.773Z,7.70
2022-12-04T08:40:21.257Z,7.72
2022-12-04T08:42:48.400Z,7.78
2022-12-04T08:45:20.276Z,7.77
2022-12-04T08:47:52.281Z,7.76
2022-12-04T08:50:19.939Z,7.75
2022-12-04T08:52:49.506Z,7.73
2022-12-04T08:55:20.995Z,7.67
2022-12-04T08:57:47.974Z,7.66
2022-12-04T09:00:16.396Z,7.63
2022-12-04T09:02:43.375Z,7.66
2022-12-04T09:05:12.564Z,7.64
2022-12-04T09:07:39.550Z,7.65
2022-12-04T09:10:07.225Z,7.68
2022-12-04T09:12:34.277Z,7.68
2022-12-04T09:15:03.935Z,7.70
2022-12-04T09:17:41.628Z,7.74
2022-12-04T09:20:09.393Z,7.75
2022-12-04T09:23:02.676Z,7.78
2022-12-04T09:25:32.099Z,7.80
2022-12-04T09:27:59.205Z,7.81
2022-12-04T09:30:29.299Z,7.82
2022-12-04T09:32:59.012Z,7.82
2022-12-04T09:35:26.069Z,7.83
2022-12-04T09:37:53.257Z,7.87
2022-12-04T09:40:32.064Z,7.88
2022-12-04T09:43:32.967Z,7.89
2022-12-04T09:46:08.796Z,7.92
2022-12-04T09:48:46.895Z,7.95
2022-12-04T09:51:19.510Z,8.00
2022-12-04T09:53:50.960Z,8.04
2022-12-04T09:56:20.571Z,8.03
2022-12-04T09:58:49.049Z,8.07
2022-12-04T10:01:22.159Z,8.12
2022-12-04T10:04:26.916Z,8.09
2022-12-04T10:06:57.423Z,8.02
2022-12-04T10:09:38.495Z,8.03
2022-12-04T10:12:15.660Z,8.03
2022-12-04T10:14:43.001Z,8.01
2022-12-04T10:17:10.281Z,7.98
2022-12-04T10:19:44.324Z,7.96
2022-12-04T10:22:20.386Z,7.94
2022-12-04T10:24:57.775Z,7.95
2022-12-04T10:27:35.561Z,7.97
2022-12-04T10:30:05.093Z,8.01
2022-12-04T10:32:37.470Z,8.04
2022-12-04T10:35:26.455Z,8.02
2022-12-04T10:37:56.743Z,8.09
2022-12-04T10:40:34.611Z,8.14
2022-12-04T10:43:11.334Z,8.20
2022-12-04T10:45:40.830Z,8.20
2022-12-04T10:48:11.670Z,8.18
2022-12-04T10:50:44.724Z,8.17
2022-12-04T10:53:14.845Z,8.18
2022-12-04T10:55:48.256Z,8.17
2022-12-04T10:58:22.089Z,8.19
2022-12-04T11:01:01.012Z,8.22
2022-12-04T11:03:29.767Z,8.17
2022-12-04T11:06:03.070Z,8.18
2022-12-04T11:08:40.145Z,8.22
2022-12-04T11:11:11.825Z,8.23
2022-12-04T11:13:39.528Z,8.21
2022-12-04T11:16:08.248Z,8.25
2022-12-04T11:18:49.542Z,8.30
2022-12-04T11:21:19.748Z,8.31
2022-12-04T11:23:49.344Z,8.33
2022-12-04T11:26:20.999Z,8.30
2022-12-04T11:29:25.560Z,8.33
2022-12-04T11:38:15.262Z,8.33
2022-12-04T11:44:20.735Z,8.30
2022-12-04T11:46:52.365Z,8.31
2022-12-04T11:49:21.986Z,8.28
2022-12-04T11:51:58.850Z,8.27
2022-12-04T11:58:27.450Z,8.27
2022-12-04T12:01:14.439Z,8.28
2022-12-04T12:03:50.027Z,8.26
2022-12-04T12:06:23.153Z,8.28
2022-12-04T12:08:50.544Z,8.24
2022-12-04T12:14:44.404Z,8.18
2022-12-04T12:17:15.174Z,8.18
2022-12-04T12:19:45.869Z,8.19
2022-12-04T12:22:14.170Z,8.21
2022-12-04T12:24:51.570Z,8.16
2022-12-04T12:27:20.347Z,8.13
2022-12-04T12:29:54.614Z,8.15
2022-12-04T12:32:31.855Z,8.16
2022-12-04T12:34:59.315Z,8.21
2022-12-04T12:37:31.730Z,8.18
2022-12-04T12:40:15.330Z,8.20
2022-12-04T12:42:55.031Z,8.18
2022-12-04T12:45:34.918Z,8.18
2022-12-04T12:48:07.400Z,8.21
2022-12-04T12:50:44.531Z,8.18
2022-12-04T12:53:13.917Z,8.18
2022-12-04T12:55:45.124Z,8.14
2022-12-04T12:58:26.935Z,8.13
2022-12-04T13:01:02.902Z,8.09
2022-12-04T13:03:31.325Z,8.13
2022-12-04T13:06:02.767Z,8.17
2022-12-04T13:08:33.344Z,8.19
2022-12-04T13:11:01.520Z,8.19
2022-12-04T13:13:30.574Z,8.15
2022-12-04T13:16:02.146Z,8.18
2022-12-04T13:18:31.106Z,8.26
2022-12-04T13:21:04.430Z,8.30
2022-12-04T13:23:33.225Z,8.32
2022-12-04T13:26:01.526Z,8.33
2022-12-04T13:28:29.557Z,8.31
2022-12-04T13:31:06.009Z,8.29
2022-12-04T13:33:33.305Z,8.27
2022-12-04T13:36:01.842Z,8.28
2022-12-04T13:38:34.108Z,8.32
2022-12-04T13:41:03.788Z,8.33
2022-12-04T13:43:37.204Z,8.32
2022-12-04T13:46:07.056Z,8.31
2022-12-04T13:48:44.907Z,8.32
2022-12-04T13:51:15.444Z,8.33
2022-12-04T13:53:46.345Z,8.31
2022-12-04T13:56:22.970Z,8.30
2022-12-04T13:58:59.387Z,8.33
2022-12-04T14:01:31.268Z,8.35
2022-12-04T14:04:00.070Z,8.35
2022-12-04T14:06:32.105Z,8.33
2022-12-04T14:09:04.226Z,8.32
2022-12-04T14:14:56.014Z,8.22
2022-12-04T14:17:26.625Z,8.18
2022-12-04T14:19:55.225Z,8.17
2022-12-04T14:22:29.548Z,8.18
2022-12-04T14:25:05.960Z,8.19
2022-12-04T14:27:53.946Z,8.22
2022-12-04T14:30:25.598Z,8.21
2022-12-04T14:32:55.525Z,8.23
2022-12-04T14:35:27.182Z,8.23
2022-12-04T14:37:58.925Z,8.25
2022-12-04T14:40:38.264Z,8.25
2022-12-04T14:43:07.576Z,8.26
2022-12-04T14:46:13.484Z,8.25
2022-12-04T14:48:41.961Z,8.18
2022-12-04T14:51:56.966Z,8.17
2022-12-04T14:55:00.193Z,8.18
2022-12-04T15:01:03.632Z,8.24
2022-12-04T15:03:32.113Z,8.27
2022-12-04T15:06:25.024Z,8.27
2022-12-04T15:08:53.964Z,8.25
2022-12-04T15:15:26.369Z,8.31
2022-12-04T15:18:15.606Z,8.29
2022-12-04T15:20:49.987Z,8.26
2022-12-04T15:23:20.647Z,8.18
2022-12-04T15:25:52.396Z,8.24
2022-12-04T15:28:29.040Z,8.19
2022-12-04T15:30:57.802Z,8.18
2022-12-04T15:33:28.313Z,8.15
2022-12-04T15:36:01.389Z,8.13
2022-12-04T15:38:29.042Z,8.09
2022-12-04T15:40:58.646Z,7.99
2022-12-04T15:43:28.906Z,8.02
2022-12-04T15:45:56.704Z,8.01
2022-12-04T15:48:28.813Z,8.04
2022-12-04T15:50:58.241Z,8.07
2022-12-04T15:53:27.418Z,8.03
2022-12-04T15:55:56.846Z,8.08
2022-12-04T15:58:30.553Z,8.00
2022-12-04T16:04:23.839Z,8.05
2022-12-04T16:06:56.805Z,8.06
2022-12-04T16:09:27.140Z,8.09
2022-12-04T16:11:58.515Z,8.14
2022-12-04T16:17:44.125Z,8.12
2022-12-04T16:20:11.605Z,8.14
2022-12-04T16:22:40.226Z,8.06
2022-12-04T16:25:11.192Z,8.06
2022-12-04T16:27:38.469Z,8.03
2022-12-04T16:33:24.283Z,8.02
2022-12-04T16:35:51.671Z,7.98
2022-12-04T16:38:18.958Z,7.98
2022-12-04T16:40:50.141Z,8.00
2022-12-04T16:43:19.509Z,7.99
2022-12-04T16:45:54.745Z,7.88
2022-12-04T16:48:22.384Z,7.85
2022-12-04T16:50:52.552Z,7.83
2022-12-04T16:53:21.819Z,7.82
2022-12-04T16:55:50.654Z,7.80
2022-12-04T16:58:18.569Z,7.81
2022-12-04T17:00:50.789Z,7.88
2022-12-04T17:03:25.182Z,7.93
2022-12-04T17:05:55.229Z,7.92
2022-12-04T17:08:25.570Z,7.86
2022-12-04T17:10:53.334Z,7.85
2022-12-04T17:13:21.710Z,7.84
2022-12-04T17:15:49.799Z,7.88
2022-12-04T17:18:21.718Z,7.91
2022-12-04T17:20:49.539Z,7.91
2022-12-04T17:23:20.034Z,7.75
2022-12-04T17:25:47.419Z,7.64
2022-12-04T17:28:14.512Z,7.63
2022-12-04T17:30:45.596Z,7.54
2022-12-04T17:33:13.862Z,7.56
2022-12-04T17:35:43.380Z,7.58
2022-12-04T17:38:11.245Z,7.56
2022-12-04T17:40:38.860Z,7.58
2022-12-04T17:43:06.061Z,7.60
2022-12-04T17:45:37.059Z,7.61
2022-12-04T17:48:04.685Z,7.64
2022-12-04T17:50:36.831Z,7.63
2022-12-04T17:53:12.300Z,7.62
2022-12-04T17:55:39.620Z,7.60
2022-12-04T18:01:38.301Z,7.53
2022-12-04T18:04:06.765Z,7.48
2022-12-04T18:06:34.196Z,7.43
2022-12-04T18:09:02.186Z,7.46
2022-12-04T18:11:30.705Z,7.40
2022-12-04T18:14:00.814Z,7.43
2022-12-04T18:16:32.690Z,7.40
2022-12-04T18:19:01.429Z,7.37
2022-12-04T18:21:36.300Z,7.34
2022-12-04T18:24:10.864Z,7.32
2022-12-04T18:27:37.786Z,7.34
2022-12-04T18:32:59.993Z,7.45
2022-12-04T18:35:37.666Z,7.45
2022-12-04T18:38:07.785Z,7.41
2022-12-04T18:40:36.276Z,7.43
2022-12-04T18:43:03.871Z,7.40
2022-12-04T18:45:31.010Z,7.35
2022-12-04T18:48:26.477Z,7.34
2022-12-04T18:51:24.635Z,7.36
2022-12-04T18:54:15.776Z,7.38
2022-12-04T19:02:48.828Z,7.41
2022-12-04T19:05:19.322Z,7.44
2022-12-04T19:07:50.467Z,7.46
2022-12-04T19:10:27.664Z,7.35
2022-12-04T19:12:58.731Z,7.35
2022-12-04T19:15:38.662Z,7.36
2022-12-04T19:18:12.331Z,7.34
2022-12-04T19:20:41.653Z,7.40
2022-12-04T19:23:15.423Z,7.41
2022-12-04T19:25:43.492Z,7.41
2022-12-04T19:28:10.948Z,7.42
2022-12-04T19:30:40.241Z,7.44
2022-12-04T19:33:09.653Z,7.52
2022-12-04T19:35:37.080Z,7.53
2022-12-04T19:38:05.151Z,7.52
2022-12-04T19:40:36.897Z,7.52
2022-12-04T19:43:09.607Z,7.52
2022-12-04T19:45:36.915Z,7.49
2022-12-04T19:48:05.231Z,7.49
2022-12-04T19:56:32.613Z,7.45
2022-12-04T20:02:50.171Z,7.52
2022-12-04T20:05:17.401Z,7.46
2022-12-04T20:07:44.975Z,7.42
2022-12-04T20:10:12.380Z,7.39
2022-12-04T20:22:36.343Z,7.36
2022-12-04T20:25:10.251Z,7.38
2022-12-04T20:27:49.788Z,7.38
2022-12-04T20:31:13.919Z,7.43
2022-12-04T20:34:26.154Z,7.38
2022-12-04T20:36:58.401Z,7.29
2022-12-04T20:39:25.748Z,7.25
2022-12-04T20:41:53.241Z,7.21
2022-12-04T20:44:21.075Z,7.25
2022-12-04T20:46:49.275Z,7.24
2022-12-04T20:49:21.672Z,7.25
2022-12-04T20:51:50.910Z,7.25
2022-12-04T20:54:19.830Z,7.25
2022-12-04T20:56:49.413Z,7.27
2022-12-04T20:59:20.281Z,7.29
2022-12-04T21:01:49.359Z,7.32
2022-12-04T21:04:18.453Z,7.34
2022-12-04T21:06:47.127Z,7.34
2022-12-04T21:09:16.841Z,7.32
2022-12-04T21:11:46.901Z,7.32
2022-12-04T21:14:25.741Z,7.32
2022-12-04T21:17:13.352Z,7.29
2022-12-04T21:19:58.614Z,7.23
2022-12-04T21:23:20.228Z,7.22
2022-12-04T21:26:09.378Z,7.23
2022-12-04T21:35:40.716Z,7.18
2022-12-04T21:47:54.335Z,7.24
2022-12-04T22:03:49.801Z,7.27
2022-12-04T22:06:24.543Z,7.26
2022-12-04T22:08:59.551Z,7.27
2022-12-04T22:14:45.042Z,7.26
2022-12-04T22:17:25.259Z,7.28
2022-12-04T22:20:00.413Z,7.30
2022-12-04T22:25:26.201Z,7.36
2022-12-04T22:27:56.277Z,7.37
2022-12-04T22:30:49.310Z,7.34
2022-12-04T22:34:06.512Z,7.30
2022-12-04T22:36:35.779Z,7.31
2022-12-04T22:39:41.831Z,7.29
2022-12-04T22:48:35.879Z,7.04
2022-12-04T22:51:21.984Z,7.04
2022-12-04T22:53:50.900Z,7.04
2022-12-04T22:56:53.886Z,7.08
2022-12-04T22:59:19.834Z,7.10
2022-12-04T23:01:47.303Z,7.13
2022-12-04T23:04:34.731Z,7.12
2022-12-04T23:07:02.800Z,7.07
2022-12-04T23:09:32.462Z,7.03
2022-12-04T23:11:59.831Z,7.03
2022-12-04T23:14:50.331Z,6.99
2022-12-04T23:17:56.911Z,7.03
2022-12-04T23:20:27.030Z,7.00
2022-12-04T23:23:01.709Z,7.00
2022-12-04T23:25:32.349Z,6.96
2022-12-04T23:28:10.915Z,6.92
2022-12-04T23:31:06.183Z,6.94
2022-12-04T23:33:47.038Z,6.95
2022-12-04T23:37:57.990Z,6.97
2022-12-04T23:39:14.240Z,6.99
2022-12-04T23:42:17.609Z,7.01
2022-12-04T23:44:56.702Z,7.07
2022-12-04T23:50:30.033Z,7.00
2022-12-04T23:53:17.660Z,7.00
2022-12-04T23:55:44.941Z,7.02
2022-12-04T23:58:21.580Z,7.06
